createdAt,value
2019-04-28T00:19:30.847Z,2.20
2019-04-28T00:22:28.271Z,1.60
2019-04-28T00:27:51.617Z,1.93
2019-04-28T00:36:15.021Z,2.20
2019-04-28T00:38:45.254Z,1.90
2019-04-28T00:41:34.842Z,1.90
2019-04-28T00:44:05.093Z,2.07
2019-04-28T00:46:36.597Z,2.23
2019-04-28T00:49:45.049Z,1.73
2019-04-28T00:52:34.858Z,1.50
2019-04-28T00:55:06.009Z,1.40
2019-04-28T00:57:55.285Z,1.67
2019-04-28T01:03:42.094Z,1.63
2019-04-28T01:06:14.086Z,2.23
2019-04-28T01:09:06.264Z,2.13
2019-04-28T01:11:37.977Z,1.40
2019-04-28T01:14:27.535Z,1.90
2019-04-28T01:17:16.732Z,1.80
2019-04-28T01:23:10.367Z,1.73
2019-04-28T01:25:52.049Z,1.40
2019-04-28T01:37:35.124Z,1.80
2019-04-28T01:40:22.811Z,2.17
2019-04-28T01:43:04.297Z,1.87
2019-04-28T01:45:45.454Z,2.13
2019-04-28T01:48:26.887Z,1.93
2019-04-28T01:50:57.207Z,2.13
2019-04-28T01:53:27.482Z,2.10
2019-04-28T01:56:20.430Z,2.07
2019-04-28T01:59:10.227Z,2.40
2019-04-28T02:02:00.291Z,2.00
2019-04-28T02:04:49.973Z,2.60
2019-04-28T02:07:20.635Z,2.40
2019-04-28T02:10:10.374Z,2.30
2019-04-28T02:12:40.578Z,2.10
2019-04-28T02:15:11.226Z,2.47
2019-04-28T02:18:02.813Z,2.10
2019-04-28T02:20:46.515Z,2.17
2019-04-28T02:23:30.362Z,2.20
2019-04-28T02:26:01.204Z,2.30
2019-04-28T02:28:50.523Z,2.17
2019-04-28T02:31:43.485Z,2.07
2019-04-28T02:34:13.773Z,1.87
2019-04-28T02:37:03.440Z,2.33
2019-04-28T02:39:33.760Z,1.80
2019-04-28T02:42:04.172Z,2.10
2019-04-28T02:44:53.454Z,2.00
2019-04-28T02:47:42.797Z,1.80
2019-04-28T02:53:51.313Z,1.50
2019-04-28T02:56:43.724Z,1.93
2019-04-28T02:59:31.978Z,1.20
2019-04-28T03:02:21.627Z,1.60
2019-04-28T03:05:11.788Z,1.40
2019-04-28T03:07:42.169Z,1.30
2019-04-28T03:10:12.840Z,1.20
2019-04-28T03:12:54.701Z,1.50
2019-04-28T03:15:36.440Z,1.47
2019-04-28T03:18:17.951Z,1.10
2019-04-28T03:21:03.617Z,1.23
2019-04-28T03:23:41.393Z,1.40
2019-04-28T03:29:42.305Z,1.20
2019-04-28T03:32:58.346Z,1.20
2019-04-28T03:35:43.982Z,1.40
2019-04-28T03:38:53.168Z,1.47
2019-04-28T03:41:23.600Z,1.50
2019-04-28T03:43:53.916Z,1.70
2019-04-28T03:49:43.470Z,1.40
2019-04-28T03:52:33.043Z,1.40
2019-04-28T03:55:03.870Z,1.40
2019-04-28T03:57:34.164Z,1.40
2019-04-28T04:00:05.310Z,1.27
2019-04-28T04:02:37.157Z,1.47
2019-04-28T04:05:26.365Z,1.60
2019-04-28T04:08:15.945Z,1.40
2019-04-28T04:11:05.046Z,1.80
2019-04-28T04:14:13.263Z,1.40
2019-04-28T04:17:21.398Z,1.60
2019-04-28T04:20:12.434Z,1.70
2019-04-28T04:23:01.783Z,1.50
2019-04-28T04:28:42.069Z,1.63
2019-04-28T04:31:32.108Z,1.57
2019-04-28T04:34:03.744Z,1.50
2019-04-28T04:36:53.007Z,1.37
2019-04-28T04:39:34.117Z,1.57
2019-04-28T04:44:50.134Z,1.50
2019-04-28T04:47:40.728Z,1.60
2019-04-28T04:50:31.306Z,1.70
2019-04-28T04:53:23.789Z,2.07
2019-04-28T04:56:14.895Z,1.90
2019-04-28T04:59:04.187Z,1.33
2019-04-28T05:01:56.635Z,1.80
2019-04-28T05:04:47.280Z,1.50
2019-04-28T05:07:36.844Z,1.70
2019-04-28T05:10:07.424Z,1.63
2019-04-28T05:12:56.951Z,2.00
2019-04-28T05:15:27.256Z,2.73
2019-04-28T05:18:19.967Z,1.93
2019-04-28T05:21:10.588Z,1.80
2019-04-28T05:24:20.089Z,2.20
2019-04-28T05:27:09.947Z,2.30
2019-04-28T05:29:40.595Z,3.10
2019-04-28T05:32:42.426Z,2.93
2019-04-28T05:35:21.989Z,2.00
2019-04-28T05:37:52.860Z,1.87
2019-04-28T05:40:23.421Z,1.83
2019-04-28T05:43:12.735Z,2.00
2019-04-28T05:46:07.189Z,2.80
2019-04-28T05:48:56.367Z,2.33
2019-04-28T05:51:47.168Z,3.57
2019-04-28T05:54:44.341Z,1.87
2019-04-28T05:57:35.835Z,1.70
2019-04-28T06:00:43.985Z,2.63
2019-04-28T06:06:11.079Z,2.20
2019-04-28T06:09:20.335Z,1.80
2019-04-28T06:11:54.380Z,2.07
2019-04-28T06:14:23.409Z,2.03
2019-04-28T06:16:54.025Z,2.03
2019-04-28T06:19:24.517Z,1.93
2019-04-28T06:21:54.798Z,1.93
2019-04-28T06:27:34.987Z,1.50
2019-04-28T06:30:24.886Z,2.20
2019-04-28T06:33:07.221Z,1.73
2019-04-28T06:35:27.203Z,1.70
2019-04-28T06:38:16.733Z,1.60
2019-04-28T06:41:00.391Z,1.60
2019-04-28T06:43:30.722Z,1.77
2019-04-28T06:46:20.064Z,1.63
2019-04-28T06:48:50.370Z,1.57
2019-04-28T06:51:26.068Z,1.43
2019-04-28T06:53:58.835Z,2.00
2019-04-28T06:56:48.772Z,1.40
2019-04-28T06:59:19.145Z,1.67
2019-04-28T07:01:49.482Z,1.87
2019-04-28T07:04:43.923Z,1.67
2019-04-28T07:07:33.189Z,1.40
2019-04-28T07:10:05.455Z,1.77
2019-04-28T07:12:48.190Z,1.23
2019-04-28T07:15:29.924Z,1.80
2019-04-28T07:18:11.541Z,1.37
2019-04-28T07:21:03.541Z,1.80
2019-04-28T07:23:53.203Z,1.30
2019-04-28T07:27:02.815Z,1.57
2019-04-28T07:30:00.009Z,1.43
2019-04-28T07:32:30.399Z,1.50
2019-04-28T07:35:00.718Z,1.33
2019-04-28T07:37:50.017Z,1.60
2019-04-28T07:40:20.261Z,1.40
2019-04-28T07:43:09.819Z,1.07
2019-04-28T07:45:51.488Z,1.40
2019-04-28T07:48:21.925Z,1.23
2019-04-28T07:51:21.746Z,1.40
2019-04-28T07:54:04.784Z,1.27
2019-04-28T07:56:33.774Z,1.03
2019-04-28T07:59:04.411Z,1.00
2019-04-28T08:04:40.433Z,1.40
2019-04-28T08:07:11.570Z,1.87
2019-04-28T08:09:42.301Z,1.50
2019-04-28T08:12:32.907Z,1.00
2019-04-28T08:15:22.324Z,1.27
2019-04-28T08:17:52.598Z,0.97
2019-04-28T08:20:22.941Z,1.10
2019-04-28T08:22:53.201Z,1.53
2019-04-28T08:25:25.112Z,1.50
2019-04-28T08:27:55.541Z,1.30
2019-04-28T08:30:25.849Z,1.10
2019-04-28T08:33:14.984Z,1.70
2019-04-28T08:36:04.459Z,1.60
2019-04-28T08:38:54.112Z,1.07
2019-04-28T08:41:43.392Z,1.30
2019-04-28T08:44:37.492Z,1.27
2019-04-28T08:47:07.847Z,1.43
2019-04-28T08:49:57.412Z,1.30
2019-04-28T08:52:46.701Z,1.00
2019-04-28T08:55:36.411Z,1.30
2019-04-28T09:01:17.820Z,1.03
2019-04-28T09:04:15.575Z,1.33
2019-04-28T09:06:44.708Z,1.00
2019-04-28T09:12:11.912Z,1.57
2019-04-28T09:14:42.271Z,1.40
2019-04-28T09:17:31.578Z,1.40
2019-04-28T09:20:01.837Z,1.43
2019-04-28T09:26:07.914Z,1.20
2019-04-28T09:28:57.607Z,1.33
2019-04-28T09:31:27.905Z,1.70
2019-04-28T09:33:58.313Z,1.47
2019-04-28T09:36:28.560Z,1.93
2019-04-28T09:38:59.252Z,1.40
2019-04-28T09:41:34.251Z,1.83
2019-04-28T09:44:16.128Z,2.20
2019-04-28T09:47:06.875Z,1.40
2019-04-28T09:49:38.357Z,1.63
2019-04-28T09:52:10.291Z,1.63
2019-04-28T09:55:01.017Z,1.37
2019-04-28T09:57:54.752Z,1.50
2019-04-28T10:04:10.952Z,1.53
2019-04-28T10:07:02.813Z,1.90
2019-04-28T10:09:36.191Z,1.50
2019-04-28T10:12:26.904Z,1.30
2019-04-28T10:14:54.178Z,1.20
2019-04-28T10:17:25.181Z,1.13
2019-04-28T10:20:32.844Z,1.57
2019-04-28T10:23:10.942Z,0.97
2019-04-28T10:25:41.961Z,0.90
2019-04-28T10:28:12.787Z,1.57
2019-04-28T10:31:25.660Z,1.00
2019-04-28T10:34:35.265Z,1.00
2019-04-28T10:37:07.299Z,1.20
2019-04-28T10:39:51.215Z,1.13
2019-04-28T10:45:48.048Z,1.10
2019-04-28T10:48:40.683Z,1.60
2019-04-28T10:51:39.445Z,1.50
2019-04-28T10:54:09.807Z,1.00
2019-04-28T10:56:46.084Z,2.13
2019-04-28T11:02:45.129Z,1.00
2019-04-28T11:05:36.738Z,1.20
2019-04-28T11:08:28.273Z,1.10
2019-04-28T11:11:38.891Z,1.00
2019-04-28T11:14:11.072Z,1.33
2019-04-28T11:16:42.339Z,1.47
2019-04-28T11:19:14.187Z,1.20
2019-04-28T11:22:03.883Z,1.33
2019-04-28T11:24:34.217Z,1.30
2019-04-28T11:27:25.860Z,1.17
2019-04-28T11:29:56.247Z,1.57
2019-04-28T11:32:26.641Z,1.50
2019-04-28T11:35:23.636Z,2.07
2019-04-28T11:38:15.695Z,2.77
2019-04-28T11:40:46.163Z,1.90
2019-04-28T11:43:35.445Z,2.10
2019-04-28T11:48:57.199Z,2.10
2019-04-28T11:51:29.935Z,2.50
2019-04-28T11:56:54.056Z,2.07
2019-04-28T11:59:45.880Z,2.57
2019-04-28T12:02:16.283Z,2.47
2019-04-28T12:04:51.591Z,2.37
2019-04-28T12:07:23.798Z,2.17
2019-04-28T12:10:40.201Z,2.07
2019-04-28T12:13:37.841Z,2.10
2019-04-28T12:16:27.682Z,2.00
2019-04-28T12:19:19.818Z,1.87
2019-04-28T12:25:01.325Z,1.87
2019-04-28T12:28:09.709Z,1.80
2019-04-28T12:30:40.026Z,1.93
2019-04-28T12:33:31.548Z,2.13
2019-04-28T12:36:28.088Z,2.23
2019-04-28T12:39:17.791Z,2.10
2019-04-28T12:42:00.895Z,1.87
2019-04-28T12:44:42.682Z,1.43
2019-04-28T12:50:33.331Z,1.10
2019-04-28T12:53:04.581Z,0.63
2019-04-28T12:55:38.768Z,0.73
2019-04-28T12:58:31.406Z,0.60
2019-04-28T13:01:23.543Z,0.67
2019-04-28T13:07:34.303Z,0.70
2019-04-28T13:10:05.066Z,0.80
2019-04-28T13:12:44.806Z,0.90
2019-04-28T13:18:33.470Z,0.80
2019-04-28T13:21:03.797Z,0.83
2019-04-28T13:23:54.969Z,1.10
2019-04-28T13:26:25.235Z,1.00
2019-04-28T13:31:46.668Z,0.80
2019-04-28T13:34:18.916Z,0.90
2019-04-28T13:36:53.151Z,0.97
2019-04-28T13:39:44.734Z,0.97
2019-04-28T13:42:57.788Z,1.10
2019-04-28T13:46:07.121Z,1.00
2019-04-28T13:48:57.780Z,0.90
2019-04-28T13:51:28.085Z,0.70
2019-04-28T13:57:15.772Z,0.53
2019-04-28T14:00:08.114Z,0.60
2019-04-28T14:06:12.630Z,0.77
2019-04-28T14:09:13.263Z,0.60
2019-04-28T14:11:52.845Z,0.80
2019-04-28T14:17:25.851Z,0.80
2019-04-28T14:22:43.501Z,0.90
2019-04-28T14:28:26.448Z,0.90
2019-04-28T14:30:59.524Z,0.60
2019-04-28T14:33:48.845Z,0.80
2019-04-28T14:36:19.246Z,0.77
2019-04-28T14:39:09.844Z,0.60
2019-04-28T14:41:51.956Z,0.67
2019-04-28T14:44:22.831Z,0.80
2019-04-28T14:46:53.758Z,0.60
2019-04-28T14:49:24.204Z,0.93
2019-04-28T14:51:54.470Z,0.80
2019-04-28T14:54:29.477Z,0.97
2019-04-28T14:57:02.011Z,0.80
2019-04-28T14:59:34.103Z,0.80
2019-04-28T15:02:24.589Z,0.70
2019-04-28T15:05:26.482Z,1.10
2019-04-28T15:08:15.617Z,1.00
2019-04-28T15:11:11.694Z,1.03
2019-04-28T15:13:41.933Z,0.90
2019-04-28T15:19:33.946Z,0.93
2019-04-28T15:22:05.175Z,1.00
2019-04-28T15:24:35.829Z,0.90
2019-04-28T15:27:25.804Z,1.00
2019-04-28T15:30:20.287Z,1.53
2019-04-28T15:32:52.080Z,1.00
2019-04-28T15:35:41.435Z,1.00
2019-04-28T15:38:11.762Z,0.93
2019-04-28T15:40:42.065Z,1.20
2019-04-28T15:43:34.506Z,1.27
2019-04-28T15:46:03.979Z,0.90
2019-04-28T15:48:53.640Z,1.20
2019-04-28T15:51:23.961Z,0.87
2019-04-28T15:54:13.547Z,0.90
2019-04-28T15:56:49.845Z,0.83
2019-04-28T15:59:22.387Z,1.20
2019-04-28T16:05:23.424Z,1.00
2019-04-28T16:08:16.941Z,0.80
2019-04-28T16:11:08.580Z,1.30
2019-04-28T16:13:57.869Z,0.60
2019-04-28T16:16:39.777Z,1.00
2019-04-28T16:19:22.226Z,1.00
2019-04-28T16:22:03.070Z,1.00
2019-04-28T16:27:50.019Z,1.10
2019-04-28T16:30:35.221Z,1.00
2019-04-28T16:33:24.452Z,1.20
2019-04-28T16:35:55.857Z,1.40
2019-04-28T16:41:43.310Z,1.00
2019-04-28T16:44:19.748Z,1.10
2019-04-28T16:50:03.250Z,1.20
2019-04-28T16:53:09.375Z,1.20
2019-04-28T16:56:14.616Z,1.20
2019-04-28T16:59:08.845Z,1.20
2019-04-28T17:05:02.511Z,1.70
2019-04-28T17:08:04.294Z,1.40
2019-04-28T17:10:27.351Z,1.10
2019-04-28T17:13:16.826Z,1.20
2019-04-28T17:15:59.158Z,1.20
2019-04-28T17:18:49.639Z,1.20
2019-04-28T17:21:41.776Z,1.40
2019-04-28T17:24:51.677Z,1.50
2019-04-28T17:27:22.224Z,1.40
2019-04-28T17:30:12.779Z,3.23
2019-04-28T17:32:43.697Z,1.30
2019-04-28T17:35:34.035Z,1.10
2019-04-28T17:44:36.551Z,1.23
2019-04-28T17:47:06.961Z,1.40
2019-04-28T17:49:38.559Z,1.40
2019-04-28T17:52:32.803Z,1.50
2019-04-28T17:55:03.416Z,1.90
2019-04-28T17:57:39.830Z,1.40
2019-04-28T18:00:34.218Z,1.53
2019-04-28T18:07:00.219Z,1.27
2019-04-28T18:09:33.875Z,1.40
2019-04-28T18:12:23.797Z,1.03
2019-04-28T18:20:36.744Z,1.23
2019-04-28T18:23:48.845Z,1.10
2019-04-28T18:26:19.797Z,1.30
2019-04-28T18:28:50.370Z,1.50
2019-04-28T18:31:59.469Z,1.20
2019-04-28T18:34:51.343Z,1.37
2019-04-28T18:38:04.495Z,1.60
2019-04-28T18:41:07.930Z,1.80
2019-04-28T18:43:50.191Z,1.23
2019-04-28T18:46:32.868Z,1.33
2019-04-28T18:49:18.164Z,1.40
2019-04-28T18:52:05.604Z,1.27
2019-04-28T18:58:01.240Z,1.10
2019-04-28T19:06:47.921Z,1.30
2019-04-28T19:12:53.992Z,1.00
2019-04-28T19:15:58.751Z,1.13
2019-04-28T19:22:01.354Z,1.13
2019-04-28T19:24:51.324Z,1.00
2019-04-28T19:27:59.624Z,0.97
2019-04-28T19:30:53.611Z,1.10
2019-04-28T19:33:36.687Z,1.00
2019-04-28T19:36:26.384Z,1.00
2019-04-28T19:39:03.528Z,0.80
2019-04-28T19:41:51.170Z,1.20
2019-04-28T19:44:25.650Z,1.17
2019-04-28T19:46:58.467Z,1.20
2019-04-28T19:49:49.515Z,1.23
2019-04-28T19:52:42.548Z,1.37
2019-04-28T19:55:35.513Z,1.27
2019-04-28T19:58:44.699Z,1.50
2019-04-28T20:04:32.144Z,1.10
2019-04-28T20:10:19.349Z,1.17
2019-04-28T20:12:51.094Z,0.73
2019-04-28T20:19:24.584Z,0.80
2019-04-28T20:22:13.760Z,0.93
2019-04-28T20:25:29.977Z,1.20
2019-04-28T20:28:00.227Z,1.20
2019-04-28T20:33:22.630Z,1.20
2019-04-28T20:42:22.092Z,1.10
2019-04-28T20:45:11.726Z,2.17
2019-04-28T20:48:01.798Z,1.57
2019-04-28T20:50:52.744Z,1.90
2019-04-28T20:53:42.149Z,1.10
2019-04-28T20:56:32.351Z,1.00
2019-04-28T20:59:21.542Z,1.00
2019-04-28T21:02:32.735Z,1.13
2019-04-28T21:05:25.158Z,0.80
2019-04-28T21:08:14.734Z,1.23
2019-04-28T21:11:25.229Z,1.20
2019-04-28T21:13:56.011Z,3.03
2019-04-28T21:16:45.775Z,0.97
2019-04-28T21:19:33.178Z,1.20
2019-04-28T21:22:05.791Z,1.20
2019-04-28T21:24:55.272Z,1.03
2019-04-28T21:27:27.696Z,1.43
2019-04-28T21:30:18.626Z,1.10
2019-04-28T21:36:07.716Z,1.00
2019-04-28T21:38:38.551Z,1.03
2019-04-28T21:47:43.440Z,1.27
2019-04-28T21:50:33.204Z,1.23
2019-04-28T21:53:22.873Z,1.30
2019-04-28T21:56:12.254Z,1.23
2019-04-28T21:59:01.998Z,0.87
2019-04-28T22:01:32.887Z,1.30
2019-04-28T22:04:23.153Z,1.00
2019-04-28T22:09:46.943Z,1.20
2019-04-28T22:12:17.770Z,1.10
2019-04-28T22:15:13.145Z,1.00
2019-04-28T22:17:44.631Z,1.20
2019-04-28T22:20:15.346Z,1.00
2019-04-28T22:22:45.809Z,1.20
2019-04-28T22:28:15.498Z,1.13
2019-04-28T22:30:46.730Z,1.20
2019-04-28T22:33:41.217Z,1.10
2019-04-28T22:36:31.268Z,1.20
2019-04-28T22:39:02.983Z,1.10
2019-04-28T22:41:53.925Z,1.17
2019-04-28T22:44:34.019Z,1.23
2019-04-28T22:47:04.364Z,1.23
2019-04-28T22:50:12.618Z,1.50
2019-04-28T22:53:01.904Z,1.20
2019-04-28T22:58:55.582Z,1.33
2019-04-28T23:02:06.879Z,1.20
2019-04-28T23:04:57.372Z,1.10
2019-04-28T23:07:47.094Z,1.23
2019-04-28T23:10:19.187Z,1.30
2019-04-28T23:12:50.355Z,1.53
2019-04-28T23:15:41.179Z,1.50
2019-04-28T23:18:30.856Z,1.27
2019-04-28T23:21:39.332Z,1.30
2019-04-28T23:24:30.243Z,1.30
2019-04-28T23:27:19.793Z,1.40
2019-04-28T23:30:01.876Z,1.43
2019-04-28T23:32:42.429Z,1.63
2019-04-28T23:35:12.895Z,1.30
2019-04-28T23:38:02.276Z,1.37
2019-04-28T23:40:32.881Z,1.50
2019-04-28T23:46:19.511Z,1.53
2019-04-28T23:49:31.556Z,1.03
2019-04-28T23:52:18.929Z,1.13
2019-04-28T23:54:51.128Z,1.80
2019-04-28T23:58:00.803Z,2.00
